KDRA/DRA METAR and TAF weather

Enter ICAO airport designator
Station Type Date Time Source
KDRA METAR 2021/09/20 04:53 UTC NOAA

KDRA 200453Z AUTO 01007KT 10SM CLR 22/M01 A2993 RMK AO2 SLP090 T02221006


Station Type Date Time Source
KDRA Decoded METAR 2021/09/20 04:53 UTC NOAA

DESERT ROCK AIRPORT, NV, United States (KDRA) 36-38N 116-02W 1006M
Sep 20, 2021 - 12:53 AM EDT / 2021.09.20 0453 UTC
Wind: from the N (010 degrees) at 8 MPH (7 KT):0
Visibility: 10 mile(s):0
Sky conditions: clear
Temperature: 72.0 F (22.2 C)
Dew Point: 30.9 F (-0.6 C)
Relative Humidity: 21%
Pressure (altimeter): 29.93 in. Hg (1013 hPa)
ob: KDRA 200453Z AUTO 01007KT 10SM CLR 22/M01 A2993 RMK AO2 SLP090 T02221006
cycle: 5

Station Type Date Time Source
KDRA TAF 2011/12/07 06:36 UTC NOAA

TAF KDRA 070532Z 0706/0806 VRB04KT P6SM SKC

Example: see airport list